Latest Weather Observations for Giles*

IDD60801

Issued at 3:01 pm CST Saturday 23 May 2015 (issued every 30 minutes, with the page automatically refreshed every 10 minutes)

About weather observations | Map of weather stations | Latest weather observations for NT | Other Formats
Station Details ID: 013017 Name: GILES METEOROLOGICAL OFFICE Lat: -25.03 Lon: 128.30 Height: 598.0 m
Data from the previous 72 hours. | See also: Recent months at Giles*

* Giles observations are collected in the South Australia time zone, which includes daylight saving in the summer period. Therefore, Rain since 9am value is with respect to South Australia local time.

Date/Time
CST
Temp
°C
App
Temp
°C
Dew
Point
Rel
Hum
%
Delta-T
°C
Wind Press
QNH
hPa
Press
MSL
hPa
Rain
since 9 am
mm
Dir
 
Spd
km/h
Gust
km/h
Spd
kts
Gust
kts
23/02:30pm 16.3 10.0 -4.3 24 8.3 N 20 28 11 15 1023.3 1021.5 0.0
23/02:00pm 16.3 9.6 -3.9 25 8.2 N 22 30 12 16 1023.4 1021.6 0.0
23/01:30pm 14.9 10.2 1.2 39 6.1 NNE 15 24 8 13 1023.7 1022.0 0.0
23/01:00pm 15.1 8.5 -0.1 35 6.6 N 24 35 13 19 1024.3 1022.6 0.0
23/12:30pm 15.7 8.6 -4.3 25 8.0 N 24 32 13 17 1024.5 1022.7 0.0
23/12:00pm 15.7 7.8 -4.8 24 8.1 N 28 35 15 19 1024.7 1022.9 0.0
23/11:30am 16.1 8.6 -4.8 23 8.3 N 26 33 14 18 1024.8 1023.0 0.0
23/11:00am 16.0 9.8 -4.6 24 8.2 NNE 19 28 10 15 1024.9 1023.1 0.0
23/10:30am 15.0 7.5 -4.1 26 7.6 NNE 26 35 14 19 1025.0 1023.2 0.0
23/10:00am 15.2 8.8 -4.5 25 7.8 NNE 20 32 11 17 1025.5 1023.8 0.0
23/09:30am 14.7 8.4 -3.8 27 7.4 NNE 20 28 11 15 1025.2 1023.5 0.0
23/08:30am 12.7 9.1 -2.4 35 6.1 ENE 7 17 4 9 1024.7 1022.9 0.0
23/07:30am 11.0 6.5 -3.5 36 5.6 E 11 15 6 8 1024.1 1022.4 0.0
23/07:00am 11.0 6.1 -3.5 36 5.6 E 13 19 7 10 1023.9 1022.2 0.0
23/06:30am 10.9 5.2 -3.6 36 5.6 E 17 22 9 12 1023.5 1021.7 0.0
23/05:30am 11.9 7.0 -3.4 34 6.0 ENE 13 19 7 10 1023.4 1021.6 0.0
23/05:00am 12.2 6.5 -4.1 32 6.3 E 17 22 9 12 1023.1 1021.3 0.0
23/04:30am 12.1 6.7 -4.3 31 6.3 E 15 19 8 10 1023.3 1021.5 0.0
23/04:00am 10.6 6.4 -3.8 36 5.5 ESE 9 9 5 5 1023.7 1022.0 0.0
23/03:30am 11.8 7.7 -3.2 35 5.9 ENE 9 11 5 6 1024.0 1022.3 0.0
23/03:00am 12.3 7.3 -4.3 31 6.4 ENE 13 19 7 10 1023.6 1021.9 0.0
23/02:30am 11.9 6.4 -5.1 30 6.4 E 15 19 8 10 1023.6 1021.9 0.0
23/02:00am 11.7 5.9 -5.0 30 6.3 E 17 20 9 11 1023.8 1022.1 0.0
23/01:30am 11.8 6.7 -5.3 30 6.4 E 13 17 7 9 1024.0 1022.3 0.0
23/01:00am 11.9 6.3 -6.0 28 6.6 E 15 20 8 11 1024.2 1022.5 0.0
23/12:30am 11.7 6.9 -6.4 27 6.6 ESE 11 15 6 8 1024.7 1022.9 0.0
23/12:00am 12.3 6.7 -6.1 27 6.8 E 15 20 8 11 1024.8 1023.0 0.0
 
Date/Time
CST
Temp
°C
App
Temp
°C
Dew
Point
Rel
Hum
%
Delta-T
°C
Wind Press
QNH
hPa
Press
MSL
hPa
Rain
since 9 am
mm
Dir
 
Spd
km/h
Gust
km/h
Spd
kts
Gust
kts
22/11:30pm 12.6 7.3 -7.4 24 7.2 E 13 17 7 9 1025.0 1023.2 0.0
22/11:00pm 13.2 7.9 -7.0 24 7.4 ENE 13 17 7 9 1025.2 1023.5 0.0
22/10:30pm 13.1 7.9 -6.3 25 7.2 ENE 13 17 7 9 1025.3 1023.6 0.0
22/09:30pm 13.7 8.4 -6.9 23 7.6 E 13 17 7 9 1025.1 1023.4 0.0
22/09:00pm 14.3 9.6 -5.5 25 7.6 ENE 11 15 6 8 1025.1 1023.4 0.0
22/08:30pm 14.9 10.2 -5.1 25 7.8 ENE 11 13 6 7 1024.9 1023.1 0.0
22/07:30pm 16.1 11.5 -3.9 25 8.1 ENE 11 13 6 7 1024.6 1022.8 0.0
22/07:00pm 17.0 12.8 -4.2 23 8.6 NE 9 13 5 7 1024.1 1022.4 0.0
22/06:30pm 17.6 12.7 -3.3 24 8.7 ENE 13 19 7 10 1023.8 1022.1 0.0
22/05:30pm 19.1 14.5 -3.9 21 9.6 E 11 17 6 9 1023.8 1022.1 0.0
22/05:00pm 19.4 15.4 -2.4 23 9.4 ENE 9 19 5 10 1023.6 1021.9 0.0
22/04:30pm 19.3 15.4 -1.8 24 9.2 E 9 15 5 8 1023.5 1021.7 0.0
22/04:00pm 19.5 15.5 -2.2 23 9.4 ENE 9 15 5 8 1023.6 1021.9 0.0
22/03:30pm 19.5 15.9 -3.5 21 9.7 E 6 15 3 8 1023.7 1022.0 0.0
22/03:00pm 19.6 15.1 -3.3 21 9.7 ENE 11 17 6 9 1024.0 1022.3 0.0
22/02:30pm 19.2 14.2 -4.6 19 9.8 E 13 20 7 11 1024.0 1022.3 0.0
22/02:00pm 18.4 13.4 -4.7 20 9.5 E 13 20 7 11 1024.9 1023.1 0.0
22/01:30pm 17.8 12.0 -5.1 20 9.2 ENE 17 26 9 14 1024.8 1023.0 0.0
22/01:00pm 16.9 10.7 -4.9 22 8.7 ENE 19 26 10 14 1025.4 1023.7 0.0
22/12:30pm 16.9 10.7 -4.9 22 8.7 ENE 19 26 10 14 1025.8 1024.1 0.0
22/12:00pm 15.6 9.5 -4.1 25 7.9 ENE 19 28 10 15 1026.5 1024.8 0.0
22/11:30am 15.9 9.8 -4.0 25 8.0 ENE 19 26 10 14 1026.9 1025.2 0.0
22/11:00am 14.6 8.8 -4.9 25 7.6 E 17 26 9 14 1027.5 1025.8 0.0
22/10:30am 13.0 7.2 -4.7 29 6.8 E 17 24 9 13 1027.6 1025.9 0.0
22/10:00am 11.8 6.0 -4.5 31 6.2 ENE 17 24 9 13 1027.4 1025.7 0.0
22/09:30am 11.2 5.0 -4.8 32 6.0 ENE 19 24 10 13 1027.4 1025.7 0.0
22/09:00am 10.9 4.5 -4.9 32 5.9 E 20 28 11 15 1027.0 1025.3 0.0
22/08:30am 10.8 4.7 -4.2 34 5.7 ENE 19 24 10 13 1027.0 1025.3 0.0
22/08:00am 10.8 5.0 -4.2 34 5.7 ENE 17 24 9 13 1027.0 1025.3 0.0
22/07:30am 10.9 5.2 -4.1 34 5.7 ENE 17 28 9 15 1026.8 1025.1 0.0
22/07:00am 10.9 6.0 -3.3 37 5.5 ENE 13 20 7 11 1026.6 1024.9 0.0
22/06:30am 11.0 4.7 -3.9 35 5.7 ENE 20 28 11 15 1026.0 1024.3 0.0
22/06:00am 11.0 4.3 -4.3 34 5.8 E 22 32 12 17 1025.7 1024.0 0.0
22/05:30am 11.0 4.9 -3.9 35 5.7 E 19 33 10 18 1025.8 1024.1 0.0
22/05:00am 10.9 5.6 -4.0 35 5.7 E 15 22 8 12 1025.5 1023.8 0.0
22/04:30am 11.3 3.8 -4.1 34 5.9 E 26 39 14 21 1025.5 1023.8 0.0
22/04:00am 11.7 3.8 -4.6 31 6.2 E 28 39 15 21 1025.2 1023.5 0.0
22/03:30am 11.5 4.8 -4.6 32 6.1 E 22 35 12 19 1025.3 1023.6 0.0
22/03:00am 10.7 5.0 -4.0 35 5.6 E 17 22 9 12 1025.8 1024.1 0.0
22/02:30am 10.7 4.5 -4.8 33 5.8 E 19 26 10 14 1025.4 1023.7 0.0
22/02:00am 10.1 4.3 -4.7 35 5.5 E 17 20 9 11 1025.7 1024.0 0.0
22/01:30am 9.9 4.9 -4.6 35 5.4 E 13 20 7 11 1025.7 1024.0 0.0
22/01:00am 10.0 5.4 -4.0 37 5.3 ESE 11 13 6 7 1025.7 1024.0 0.0
22/12:30am 10.3 5.4 -3.5 37 5.3 E 13 15 7 8 1025.9 1024.2 0.0
22/12:00am 11.3 6.8 -3.0 36 5.6 E 11 17 6 9 1026.2 1024.4 0.0
 
Date/Time
CST
Temp
°C
App
Temp
°C
Dew
Point
Rel
Hum
%
Delta-T
°C
Wind Press
QNH
hPa
Press
MSL
hPa
Rain
since 9 am
mm
Dir
 
Spd
km/h
Gust
km/h
Spd
kts
Gust
kts
21/11:30pm 12.2 7.3 -3.3 34 6.1 ESE 13 19 7 10 1026.0 1024.3 0.0
21/11:00pm 11.6 6.8 -2.8 36 5.7 E 13 17 7 9 1026.0 1024.3 0.0
21/10:30pm 11.6 7.2 -2.1 38 5.5 ENE 11 13 6 7 1026.3 1024.5 0.0
21/10:00pm 12.6 8.2 -2.6 34 6.1 E 11 13 6 7 1026.4 1024.6 0.0
21/09:30pm 13.0 8.6 -2.7 33 6.3 E 11 13 6 7 1026.5 1024.8 0.0
21/09:00pm 13.8 9.4 -2.7 32 6.7 E 11 15 6 8 1026.3 1024.5 0.0
21/08:30pm 14.8 10.0 -2.8 29 7.2 ESE 13 17 7 9 1026.0 1024.3 0.0
21/08:00pm 15.5 10.3 -3.1 27 7.6 SE 15 20 8 11 1025.7 1024.0 0.0
21/07:30pm 16.2 11.0 -2.9 27 7.9 SE 15 19 8 10 1025.6 1023.9 0.0
21/07:00pm 16.8 12.0 -2.5 26 8.1 SE 13 13 7 7 1025.2 1023.5 0.0
21/06:30pm 17.9 13.2 -1.5 26 8.4 ESE 13 17 7 9 1024.9 1023.1 0.0
21/06:00pm 19.3 14.2 -2.2 23 9.3 ESE 15 20 8 11 1024.7 1022.9 0.0
21/05:30pm 20.1 14.6 -2.2 22 9.7 ESE 17 24 9 13 1024.3 1022.6 0.0
21/05:00pm 20.4 16.2 -0.7 24 9.5 ESE 11 17 6 9 1024.2 1022.5 0.0
21/04:30pm 20.5 15.2 -0.9 23 9.6 SE 17 26 9 14 1024.0 1022.3 0.0
21/04:00pm 20.4 15.9 0.0 25 9.3 ESE 13 20 7 11 1024.1 1022.4 0.0
21/03:30pm 20.5 15.6 -0.5 24 9.5 ESE 15 20 8 11 1024.3 1022.6 0.0
21/03:00pm 20.6 14.7 -1.1 23 9.7 SE 20 35 11 19 1024.7 1022.9 0.0
21/02:30pm 20.1 14.1 -1.4 23 9.5 SE 20 30 11 16 1024.9 1023.1 0.0
21/02:00pm 19.6 13.6 -1.6 24 9.3 ESE 20 30 11 16 1025.1 1023.4 0.0
21/01:30pm 19.0 13.0 -1.3 25 8.9 ESE 20 33 11 18 1025.7 1024.0 0.0
21/01:00pm 17.8 11.8 -1.3 27 8.3 E 20 28 11 15 1026.2 1024.4 0.0
21/12:30pm 17.5 11.1 -1.5 27 8.2 E 22 32 12 17 1026.9 1025.2 0.0
21/12:00pm 16.8 10.1 -1.0 29 7.7 ESE 24 35 13 19 1027.4 1025.7 0.0
21/11:30am 16.1 8.7 -0.5 32 7.2 ESE 28 39 15 21 1027.5 1025.8 0.0
21/11:00am 15.3 7.5 -0.5 34 6.9 ESE 30 39 16 21 1028.1 1026.4 0.0
21/10:30am 14.1 7.2 0.3 39 6.0 ESE 26 35 14 19 1028.3 1026.6 0.0
21/10:00am 12.8 5.2 0.5 43 5.3 ESE 30 43 16 23 1028.3 1026.6 0.0
21/09:30am 11.3 4.1 0.5 47 4.6 ESE 28 39 15 21 1028.1 1026.4 0.0
21/09:00am 9.6 3.5 0.2 52 3.9 ESE 22 32 12 17 1028.1 1026.4 0.0
21/08:30am 8.9 2.3 -0.2 53 3.7 ESE 24 32 13 17 1027.8 1026.1 0.0
21/08:00am 7.6 1.8 -0.1 58 3.1 ESE 20 28 11 15 1027.4 1025.7 0.0
21/07:30am 6.9 1.3 -0.1 61 2.8 SE 19 24 10 13 1027.0 1025.3 0.0
21/07:00am 7.4 1.8 0.0 59 3.0 ESE 19 24 10 13 1026.9 1025.2 0.0
21/06:30am 7.7 2.1 0.1 58 3.1 ESE 19 22 10 12 1026.4 1024.6 0.0
21/06:00am 8.0 2.2 0.2 58 3.2 SE 20 24 11 13 1025.9 1024.2 0.0
21/05:30am 8.7 3.1 0.2 55 3.5 ESE 19 24 10 13 1025.8 1024.1 0.0
21/05:00am 9.4 3.6 0.2 52 3.8 SE 20 28 11 15 1025.9 1024.2 0.0
21/04:30am 9.9 4.2 0.6 52 3.9 SE 20 30 11 16 1025.8 1024.1 0.0
21/04:00am 10.1 4.1 1.2 54 3.8 SE 22 28 12 15 1025.6 1023.9 0.0
21/03:30am 10.5 4.6 1.7 54 3.8 SE 22 32 12 17 1025.7 1024.0 0.0
21/03:00am 10.8 5.4 2.4 56 3.7 SE 20 28 11 15 1025.8 1024.1 0.0
21/02:30am 11.3 5.6 2.8 56 3.8 SE 22 28 12 15 1025.8 1024.1 0.0
21/02:00am 11.6 6.3 2.9 55 3.9 SE 20 33 11 18 1026.2 1024.4 0.0
21/01:30am 11.9 6.6 2.8 53 4.1 SE 20 28 11 15 1026.2 1024.4 0.0
21/01:00am 12.4 7.1 2.9 52 4.3 SE 20 30 11 16 1026.3 1024.5 0.0
21/12:30am 12.7 7.4 3.0 51 4.4 SE 20 28 11 15 1026.2 1024.4 0.0
21/12:00am 13.1 7.9 3.6 52 4.4 SE 20 26 11 14 1026.3 1024.5 0.0
 
Date/Time
CST
Temp
°C
App
Temp
°C
Dew
Point
Rel
Hum
%
Delta-T
°C
Wind Press
QNH
hPa
Press
MSL
hPa
Rain
since 9 am
mm
Dir
 
Spd
km/h
Gust
km/h
Spd
kts
Gust
kts
20/11:30pm 13.6 8.6 3.4 50 4.7 SSE 19 28 10 15 1026.2 1024.4 0.0
20/11:00pm 14.1 9.0 3.9 50 4.8 SSE 20 30 11 16 1025.9 1024.2 0.0
20/10:30pm 14.6 9.0 3.7 48 5.1 SSE 22 30 12 16 1025.9 1024.2 0.0
20/10:00pm 15.2 9.7 3.8 46 5.4 SSE 22 33 12 18 1026.2 1024.4 0.0
20/09:30pm 15.7 9.9 4.2 46 5.5 SSE 24 32 13 17 1026.0 1024.3 0.0
20/09:00pm 16.3 10.5 4.2 44 5.8 SSE 24 35 13 19 1025.7 1024.0 0.0
20/08:30pm 16.9 11.4 4.0 42 6.2 SSE 22 32 12 17 1025.1 1023.4 0.0
20/08:00pm 17.4 11.9 4.2 41 6.4 SSE 22 30 12 16 1024.7 1022.9 0.0
20/07:30pm 17.9 12.9 4.7 41 6.5 SSE 20 26 11 14 1024.2 1022.5 0.0
20/07:00pm 18.6 13.5 4.3 38 7.0 SSE 20 28 11 15 1023.8 1022.1 0.0
20/06:30pm 19.2 14.1 4.1 37 7.4 SSE 20 30 11 16 1023.2 1021.4 0.0
20/06:00pm 20.0 14.5 4.2 35 7.8 SSE 22 30 12 16 1022.8 1021.0 0.0
20/05:30pm 20.6 14.8 4.3 34 8.1 SSE 24 35 13 19 1022.5 1020.8 0.0
20/05:00pm 21.6 16.2 4.5 32 8.6 SSE 22 33 12 18 1022.1 1020.4 0.0
20/04:30pm 22.0 16.9 3.9 30 9.0 SSE 20 28 11 15 1021.8 1020.0 0.0
20/04:00pm 22.4 17.1 3.1 28 9.5 S 20 32 11 17 1021.8 1020.0 0.0
20/03:30pm 22.7 17.1 3.6 28 9.5 SSE 22 32 12 17 1021.5 1019.7 0.0

Other Formats:

Comma delimited format used in spreadsheet applications
http://www.bom.gov.au/fwo/IDD60801/IDD60801.94461.axf

JavaScript Object Notation format (JSON) in row-major order
http://www.bom.gov.au/fwo/IDD60801/IDD60801.94461.json